Time;durP1;ratioP1;P1;durP2;ratioP2;P2;SDS_P1;SDS_P2;PMS_P1;PMS_P2;Temp;Humidity;BMP_temperature;BMP_pressure;BME280_temperature;BME280_humidity;BME280_pressure;Samples;Min_cycle;Max_cycle;Signal;HPM_P1;HPM_P2
2023/08/26 00:02:26;;;;;;;5.15;1.92;;;;;;;-142.75;100.00;75847.94;5023814;28;20029;-62
2023/08/26 00:04:52;;;;;;;5.55;2.28;;;;;;;-142.75;100.00;75826.28;5023148;28;20037;-62
2023/08/26 00:07:17;;;;;;;3.25;1.92;;;;;;;-142.75;100.00;75808.56;5023292;28;20079;-61
2023/08/26 00:09:42;;;;;;;5.97;2.53;;;;;;;-142.75;100.00;75814.47;5024563;28;20037;-61
2023/08/26 00:12:08;;;;;;;4.78;2.47;;;;;;;-142.75;100.00;75830.22;5023590;28;20020;-61
2023/08/26 00:14:33;;;;;;;6.53;2.75;;;;;;;-142.75;100.00;75838.09;5025942;28;20116;-61
2023/08/26 00:16:59;;;;;;;9.23;2.60;;;;;;;-142.75;100.00;75836.13;5027799;28;20451;-61
2023/08/26 00:19:24;;;;;;;10.30;2.40;;;;;;;-142.75;100.00;75844.00;5028198;28;20029;-62
2023/08/26 00:21:50;;;;;;;7.53;2.00;;;;;;;-142.75;100.00;75845.97;5028023;28;20548;-61
2023/08/26 00:24:16;;;;;;;7.03;2.17;;;;;;;-142.75;100.00;75853.84;5027532;28;20040;-61
2023/08/26 00:26:41;;;;;;;4.10;1.60;;;;;;;-142.75;100.00;75881.38;5027663;28;20041;-62
2023/08/26 00:29:07;;;;;;;5.38;1.55;;;;;;;-142.75;100.00;75889.25;5027432;28;20052;-61
2023/08/26 00:31:32;;;;;;;6.30;1.80;;;;;;;-142.75;100.00;75895.16;5027892;28;20044;-61
2023/08/26 00:34:02;;;;;;;8.75;1.80;;;;;;;-142.75;100.00;75881.38;5027348;28;20029;-61
2023/08/26 00:36:27;;;;;;;8.80;2.03;;;;;;;-142.75;100.00;75891.22;5027272;28;20032;-61
2023/08/26 00:38:52;;;;;;;4.22;1.60;;;;;;;-142.75;100.00;75889.25;5027287;28;20021;-60
2023/08/26 00:41:18;;;;;;;7.25;1.23;;;;;;;-142.75;100.00;75895.16;5027034;28;20018;-61
2023/08/26 00:43:43;;;;;;;4.10;1.30;;;;;;;-142.75;100.00;75889.25;5027156;28;20025;-61
2023/08/26 00:46:08;;;;;;;4.72;1.50;;;;;;;-142.75;100.00;75905.00;5027187;28;20021;-61
2023/08/26 00:48:34;;;;;;;6.28;1.35;;;;;;;-142.75;100.00;75908.94;5027578;28;20029;-60
2023/08/26 00:50:59;;;;;;;3.90;1.38;;;;;;;-142.75;100.00;75897.13;5027199;28;20013;-61
2023/08/26 00:53:25;;;;;;;4.05;1.20;;;;;;;-142.75;100.00;75887.28;5027449;28;20385;-61
2023/08/26 00:55:53;;;;;;;4.60;1.50;;;;;;;-142.75;100.00;75889.25;5027225;28;20022;-61
2023/08/26 00:58:20;;;;;;;5.22;1.38;;;;;;;-142.75;100.00;75877.44;5027137;28;20029;-61
2023/08/26 01:00:45;;;;;;;3.78;1.20;;;;;;;-142.75;100.00;75887.28;5027153;28;20017;-61
2023/08/26 01:03:11;;;;;;;6.55;1.50;;;;;;;-142.75;100.00;75897.13;5026947;28;20128;-61
2023/08/26 01:05:36;;;;;;;5.05;1.10;;;;;;;-142.75;100.00;75887.28;5027539;28;20020;-61
2023/08/26 01:08:04;;;;;;;4.90;1.50;;;;;;;-142.75;100.00;75885.31;5027598;28;20592;-61
2023/08/26 01:11:07;;;;;;;9.43;1.75;;;;;;;-142.75;100.00;75912.88;5027638;28;20026;-61
2023/08/26 01:14:31;;;;;;;4.25;1.30;;;;;;;-142.75;100.00;75932.56;5027378;28;20504;-61
2023/08/26 01:16:57;;;;;;;5.10;1.55;;;;;;;-142.75;100.00;75944.38;5004440;28;20036;-60
2023/08/26 01:19:37;;;;;;;11.02;1.70;;;;;;;-142.75;100.00;75930.59;5004896;28;20034;-60
2023/08/26 01:22:09;;;;;;;4.43;1.42;;;;;;;-142.75;100.00;75932.56;5020708;28;20079;-60
2023/08/26 01:24:36;;;;;;;6.40;1.90;;;;;;;-142.75;100.00;75936.50;5026817;28;20029;-61
2023/08/26 01:27:02;;;;;;;6.72;1.80;;;;;;;-142.75;100.00;75932.56;5027298;28;20029;-60
2023/08/26 01:29:28;;;;;;;7.00;1.40;;;;;;;-142.75;100.00;75928.63;5027019;28;20099;-60
2023/08/26 01:32:49;;;;;;;5.43;2.08;;;;;;;-142.75;100.00;75926.66;5027168;28;20029;-61
2023/08/26 01:35:20;;;;;;;4.13;1.75;;;;;;;-142.75;100.00;75940.44;4972674;28;20038;-63
2023/08/26 01:37:47;;;;;;;7.80;2.00;;;;;;;-142.75;100.00;75964.03;5019283;28;20520;-63
2023/08/26 01:40:13;;;;;;;4.75;2.28;;;;;;;-142.75;100.00;75962.09;5026335;28;20080;-63
2023/08/26 01:42:41;;;;;;;5.88;1.80;;;;;;;-142.75;100.00;75960.13;5026520;28;20021;-62
2023/08/26 01:45:07;;;;;;;7.07;2.22;;;;;;;-142.75;100.00;75966.00;5025998;28;20639;-63
2023/08/26 01:47:32;;;;;;;8.20;2.38;;;;;;;-142.75;100.00;75985.69;5026453;28;20071;-63
2023/08/26 01:49:57;;;;;;;8.18;2.55;;;;;;;-142.75;100.00;75985.69;5026734;28;20033;-63
2023/08/26 01:52:23;;;;;;;7.60;1.90;;;;;;;-142.75;100.00;75983.72;5026095;28;20103;-63
2023/08/26 01:54:49;;;;;;;6.43;2.42;;;;;;;-142.75;100.00;75975.84;5025381;28;20040;-63
2023/08/26 01:57:15;;;;;;;5.38;2.22;;;;;;;-142.75;100.00;75991.59;5025919;28;20033;-63
2023/08/26 01:59:41;;;;;;;8.05;2.38;;;;;;;-142.75;100.00;75991.59;5025996;28;20712;-63
2023/08/26 02:02:07;;;;;;;7.75;2.25;;;;;;;-142.75;100.00;75979.78;5025777;28;20028;-62
2023/08/26 02:04:32;;;;;;;6.75;2.13;;;;;;;-142.75;100.00;75989.63;5026273;28;20104;-63
2023/08/26 02:06:57;;;;;;;6.53;2.22;;;;;;;-142.75;100.00;75983.72;5025877;28;20112;-63
2023/08/26 02:09:23;;;;;;;4.82;2.30;;;;;;;-142.75;100.00;75969.94;5025861;28;20055;-63
2023/08/26 02:11:48;;;;;;;6.75;2.13;;;;;;;-142.75;100.00;75969.94;5025892;28;20053;-61
2023/08/26 02:14:13;;;;;;;4.38;2.03;;;;;;;-142.75;100.00;75971.91;5025635;28;20056;-62
2023/08/26 02:16:39;;;;;;;6.30;2.10;;;;;;;-142.75;100.00;75969.94;5025599;28;20024;-63
2023/08/26 02:19:04;;;;;;;4.55;1.77;;;;;;;-142.75;100.00;75966.00;5035543;28;20447;-63
2023/08/26 02:21:29;;;;;;;10.40;2.40;;;;;;;-142.75;100.00;75964.03;5045895;28;20032;-63
2023/08/26 02:23:55;;;;;;;10.20;2.90;;;;;;;-142.75;100.00;75973.88;5045246;28;20033;-63
2023/08/26 02:26:20;;;;;;;7.07;2.10;;;;;;;-142.75;100.00;75983.72;5045118;28;20029;-60
2023/08/26 02:28:46;;;;;;;5.30;1.92;;;;;;;-142.75;100.00;75975.84;5045269;28;20507;-63
2023/08/26 02:31:11;;;;;;;6.95;1.73;;;;;;;-142.75;100.00;75973.88;5045131;28;20029;-63
2023/08/26 02:33:36;;;;;;;5.65;1.70;;;;;;;-142.75;100.00;75979.78;5045047;28;20451;-61
2023/08/26 02:36:02;;;;;;;6.53;2.25;;;;;;;-142.75;100.00;75967.97;5044717;28;20098;-61
2023/08/26 02:38:27;;;;;;;8.43;2.00;;;;;;;-142.75;100.00;75966.00;5037469;28;20026;-60
2023/08/26 02:40:55;;;;;;;8.80;2.10;;;;;;;-142.75;100.00;75964.03;5037521;28;20060;-61
2023/08/26 02:43:21;;;;;;;4.20;1.88;;;;;;;-142.75;100.00;75981.75;5044873;28;20032;-61
2023/08/26 02:45:57;;;;;;;7.30;2.05;;;;;;;-142.75;100.00;75975.84;5044715;28;20082;-62
2023/08/26 02:48:25;;;;;;;5.60;1.58;;;;;;;-142.75;100.00;76003.41;5044908;28;20060;-61
2023/08/26 02:51:02;;;;;;;6.55;1.95;;;;;;;-142.75;100.00;75997.50;5045734;28;20062;-63
2023/08/26 02:53:29;;;;;;;5.72;1.90;;;;;;;-142.75;100.00;75999.47;5044709;28;20040;-63
2023/08/26 02:55:55;;;;;;;5.65;1.92;;;;;;;-142.75;100.00;76015.22;5044808;28;20488;-63
2023/08/26 02:58:21;;;;;;;4.65;1.92;;;;;;;-142.75;100.00;76011.28;5045123;28;20052;-63
2023/08/26 03:00:47;;;;;;;6.60;1.95;;;;;;;-142.75;100.00;76015.22;5044904;28;20028;-63
2023/08/26 03:03:16;;;;;;;9.90;2.33;;;;;;;-142.75;100.00;76017.19;5044989;28;20025;-62
2023/08/26 03:05:41;;;;;;;9.05;2.25;;;;;;;-142.75;100.00;76011.28;5044708;28;20036;-63
2023/08/26 03:08:07;;;;;;;4.40;2.08;;;;;;;-142.75;100.00;76011.28;5044874;28;20131;-63
2023/08/26 03:10:33;;;;;;;8.68;2.33;;;;;;;-142.75;100.00;76009.31;5045128;28;20082;-64
2023/08/26 03:12:59;;;;;;;4.97;1.80;;;;;;;-142.75;100.00;76007.34;5044897;28;20060;-63
2023/08/26 03:15:28;;;;;;;6.65;2.10;;;;;;;-142.75;100.00;76007.34;5044642;28;20055;-63
2023/08/26 03:17:54;;;;;;;7.75;2.20;;;;;;;-142.75;100.00;76015.22;5045046;28;20584;-63
2023/08/26 03:20:20;;;;;;;7.40;2.50;;;;;;;-142.75;100.00;76019.16;5045315;28;20029;-63
2023/08/26 03:22:45;;;;;;;9.68;2.38;;;;;;;-142.75;100.00;76023.09;5044881;28;20063;-63
2023/08/26 03:25:11;;;;;;;5.25;1.90;;;;;;;-142.75;100.00;76017.19;5044232;28;20104;-64
2023/08/26 03:27:36;;;;;;;5.93;2.13;;;;;;;-142.75;100.00;76015.22;5044326;28;20064;-63
2023/08/26 03:30:02;;;;;;;6.00;2.30;;;;;;;-142.75;100.00;76015.22;5044512;28;20017;-63
2023/08/26 03:32:27;;;;;;;5.32;2.10;;;;;;;-142.75;100.00;76015.22;5044002;28;20100;-64
2023/08/26 03:34:53;;;;;;;7.20;2.50;;;;;;;-142.75;100.00;76029.00;5044051;28;20063;-63
2023/08/26 03:37:18;;;;;;;4.85;1.95;;;;;;;-142.75;100.00;76046.72;5044238;28;20029;-63
2023/08/26 03:39:43;;;;;;;7.15;2.13;;;;;;;-142.75;100.00;76019.16;5044233;28;20029;-63
2023/08/26 03:42:09;;;;;;;9.18;2.13;;;;;;;-142.75;100.00;76015.22;5044056;28;20027;-63
2023/08/26 03:44:34;;;;;;;5.03;1.98;;;;;;;-142.75;100.00;76011.28;5044166;28;20060;-64
2023/08/26 03:46:59;;;;;;;8.48;2.10;;;;;;;-142.75;100.00;76023.09;5043903;28;20025;-63
2023/08/26 03:49:25;;;;;;;8.38;3.03;;;;;;;-142.75;100.00;76038.84;5046520;28;20094;-63
2023/08/26 03:51:51;;;;;;;8.68;2.17;;;;;;;-142.75;100.00;76050.66;5049043;28;20024;-64
2023/08/26 03:54:17;;;;;;;7.07;2.33;;;;;;;-142.75;100.00;76046.72;5048397;28;20392;-63
2023/08/26 03:56:42;;;;;;;7.55;2.20;;;;;;;-142.75;100.00;76052.63;5047820;28;20040;-63
2023/08/26 03:59:08;;;;;;;7.03;2.15;;;;;;;-142.75;100.00;76068.38;5047715;28;20016;-63
2023/08/26 04:01:33;;;;;;;12.38;3.40;;;;;;;-142.75;100.00;76078.19;5048144;28;20064;-63
2023/08/26 04:03:59;;;;;;;7.50;2.00;;;;;;;-142.75;100.00;76070.34;5047690;28;20060;-63
2023/08/26 04:06:24;;;;;;;6.20;2.30;;;;;;;-142.75;100.00;76052.63;5047730;28;20031;-63
2023/08/26 04:08:49;;;;;;;4.97;2.08;;;;;;;-142.75;100.00;76058.53;5047889;28;20052;-63
2023/08/26 04:11:17;;;;;;;6.90;2.05;;;;;;;-142.75;100.00;76062.47;5047937;28;20078;-62
2023/08/26 04:13:43;;;;;;;8.93;2.05;;;;;;;-142.75;100.00;76082.13;5047741;28;20111;-63
2023/08/26 04:16:08;;;;;;;8.70;2.35;;;;;;;-142.75;100.00;76082.13;5047356;28;20127;-62
2023/08/26 04:18:34;;;;;;;6.88;1.88;;;;;;;-142.75;100.00;76078.19;5047997;28;20659;-63
2023/08/26 04:20:59;;;;;;;5.18;1.90;;;;;;;-142.75;100.00;76068.38;5048142;28;20029;-63
2023/08/26 04:23:24;;;;;;;6.05;1.98;;;;;;;-142.75;100.00;76078.19;5047764;28;20123;-63
2023/08/26 04:25:52;;;;;;;8.18;2.30;;;;;;;-142.75;100.00;76080.16;5047350;28;20055;-63
2023/08/26 04:28:17;;;;;;;6.10;2.15;;;;;;;-142.75;100.00;76097.88;5047623;28;20128;-61
2023/08/26 04:30:44;;;;;;;7.85;2.65;;;;;;;-142.75;100.00;76095.91;5047485;28;20103;-61
2023/08/26 04:33:10;;;;;;;6.38;2.15;;;;;;;-142.75;100.00;76082.13;5047436;28;20024;-61
2023/08/26 04:35:36;;;;;;;6.22;2.33;;;;;;;-142.75;100.00;76086.06;5047214;28;20032;-61
2023/08/26 04:38:01;;;;;;;6.88;2.45;;;;;;;-142.75;100.00;76103.78;5047624;28;20036;-62
2023/08/26 04:40:27;;;;;;;6.40;2.20;;;;;;;-142.75;100.00;76103.78;5047170;28;20028;-63
2023/08/26 04:42:56;;;;;;;5.13;2.08;;;;;;;-142.75;100.00;76113.63;5045952;28;20036;-63
2023/08/26 04:45:22;;;;;;;5.00;1.92;;;;;;;-142.75;100.00;76105.75;5045713;28;20032;-63
2023/08/26 04:47:48;;;;;;;6.38;2.13;;;;;;;-142.75;100.00;76109.69;5046356;28;20036;-63
2023/08/26 04:50:13;;;;;;;6.07;2.10;;;;;;;-142.75;100.00;76093.94;5046847;28;20017;-63
2023/08/26 04:52:40;;;;;;;5.10;2.03;;;;;;;-142.75;100.00;76105.75;5046722;28;20104;-61
2023/08/26 04:55:09;;;;;;;4.05;1.48;;;;;;;-142.75;100.00;76095.91;5046035;28;20025;-63
2023/08/26 04:57:35;;;;;;;6.05;1.90;;;;;;;-142.75;100.00;76101.81;5046303;28;20166;-63
2023/08/26 05:00:00;;;;;;;6.68;1.50;;;;;;;-142.75;100.00;76095.91;5045880;28;20103;-63
2023/08/26 05:02:25;;;;;;;5.50;2.10;;;;;;;-142.75;100.00;76093.94;5046336;28;20515;-63
2023/08/26 05:04:51;;;;;;;5.97;2.03;;;;;;;-142.75;100.00;76078.19;5046114;28;20029;-63
2023/08/26 05:07:17;;;;;;;6.45;1.67;;;;;;;-142.75;100.00;76078.19;5046093;28;20504;-63
2023/08/26 05:09:42;;;;;;;5.53;1.70;;;;;;;-142.75;100.00;76090.00;5046047;28;20112;-63
2023/08/26 05:12:08;;;;;;;3.60;1.85;;;;;;;-142.75;100.00;76076.22;5045963;28;20021;-62
2023/08/26 05:14:33;;;;;;;5.72;1.60;;;;;;;-142.75;100.00;76082.13;5045901;28;20028;-61
2023/08/26 05:16:59;;;;;;;6.80;2.20;;;;;;;-142.75;100.00;76080.16;5024368;28;20044;-61
2023/08/26 05:19:24;;;;;;;5.93;2.13;;;;;;;-142.75;100.00;76068.38;5025973;28;20021;-61
2023/08/26 05:21:49;;;;;;;5.75;1.88;;;;;;;-142.75;100.00;76082.13;5026406;28;20030;-61
2023/08/26 05:24:15;;;;;;;5.80;2.10;;;;;;;-142.75;100.00;76070.34;5025521;28;20024;-60
2023/08/26 05:26:42;;;;;;;7.65;2.60;;;;;;;-142.75;100.00;76064.44;5025490;28;20505;-62
2023/08/26 05:29:08;;;;;;;3.17;1.80;;;;;;;-142.75;100.00;76062.47;5025450;28;20029;-63
2023/08/26 05:31:34;;;;;;;4.90;1.95;;;;;;;-142.75;100.00;76044.75;5025842;28;20648;-61
2023/08/26 05:33:59;;;;;;;3.88;1.88;;;;;;;-142.75;100.00;76030.97;5025521;28;20026;-61
2023/08/26 05:36:24;;;;;;;6.65;2.00;;;;;;;-142.75;100.00;76005.38;5025495;28;20029;-61
2023/08/26 05:38:50;;;;;;;4.43;1.80;;;;;;;-142.75;100.00;76001.44;5025592;28;20482;-61
2023/08/26 05:41:16;;;;;;;10.07;2.40;;;;;;;-142.75;100.00;75977.81;4987741;28;1080148;-61
2023/08/26 05:43:41;;;;;;;5.90;2.00;;;;;;;-142.75;100.00;75971.91;5026252;28;20060;-61
2023/08/26 05:46:06;;;;;;;6.60;2.58;;;;;;;-142.75;100.00;75991.59;5026311;28;20493;-61
2023/08/26 05:48:32;;;;;;;7.07;2.10;;;;;;;-142.75;100.00;75987.66;5026559;28;20048;-61
2023/08/26 05:50:58;;;;;;;5.88;2.15;;;;;;;-142.75;100.00;75958.16;5027053;28;20059;-61
2023/08/26 05:53:24;;;;;;;5.65;2.33;;;;;;;-142.75;100.00;75952.25;5009389;28;20033;-61
2023/08/26 05:55:50;;;;;;;7.13;2.88;;;;;;;-142.75;100.00;75960.13;5026183;28;20026;-61
2023/08/26 05:58:15;;;;;;;5.88;2.22;;;;;;;-142.75;100.00;75940.44;5026592;28;20040;-61
2023/08/26 06:00:41;;;;;;;6.13;2.40;;;;;;;-142.75;100.00;75922.72;5026514;28;20104;-61
2023/08/26 06:03:06;;;;;;;4.60;2.22;;;;;;;-142.75;100.00;75934.53;5026730;28;20112;-62
2023/08/26 06:05:31;;;;;;;6.97;2.45;;;;;;;-142.75;100.00;75922.72;5026557;28;20091;-62
2023/08/26 06:07:57;;;;;;;6.90;2.03;;;;;;;-142.75;100.00;75899.09;5026534;28;20090;-61
2023/08/26 06:10:23;;;;;;;7.88;2.08;;;;;;;-142.75;100.00;75881.38;5026988;28;20038;-61
2023/08/26 06:12:48;;;;;;;5.95;1.98;;;;;;;-142.75;100.00;75879.41;5025790;28;20018;-61
2023/08/26 06:15:14;;;;;;;7.00;1.75;;;;;;;-142.75;100.00;75875.47;5026149;28;20036;-61
2023/08/26 06:17:41;;;;;;;4.75;2.05;;;;;;;-142.75;100.00;75881.38;5026178;28;20064;-61
2023/08/26 06:20:07;;;;;;;9.00;2.53;;;;;;;-142.75;100.00;75920.75;5025898;28;20431;-61
2023/08/26 06:22:32;;;;;;;7.13;2.42;;;;;;;-142.75;100.00;75908.94;5026564;28;20021;-61
2023/08/26 06:24:59;;;;;;;5.40;1.90;;;;;;;-142.75;100.00;75893.19;5025951;28;20075;-62
2023/08/26 06:27:25;;;;;;;7.30;2.00;;;;;;;-142.75;100.00;75895.16;5025972;28;20053;-61
2023/08/26 06:29:55;;;;;;;5.68;1.88;;;;;;;-142.75;100.00;75903.03;5026165;28;20018;-61
2023/08/26 06:32:21;;;;;;;6.28;2.50;;;;;;;-142.75;100.00;75908.94;5025943;28;20546;-61
2023/08/26 06:34:46;;;;;;;6.13;2.17;;;;;;;-142.75;100.00;75948.31;5025923;28;20029;-61
2023/08/26 06:37:13;;;;;;;6.25;1.85;;;;;;;-142.75;100.00;75948.31;5026004;28;20025;-62
2023/08/26 06:39:39;;;;;;;6.38;2.20;;;;;;;-142.75;100.00;75928.63;5025825;28;20509;-61
2023/08/26 06:42:05;;;;;;;7.85;2.63;;;;;;;-142.75;100.00;75908.94;5025826;28;20024;-61
2023/08/26 06:44:30;;;;;;;6.65;2.65;;;;;;;-142.75;100.00;75887.28;5025910;28;20029;-62
2023/08/26 06:46:56;;;;;;;4.50;1.98;;;;;;;-142.75;100.00;75883.34;5025996;28;20027;-61
2023/08/26 06:49:21;;;;;;;4.25;1.70;;;;;;;-142.75;100.00;75849.91;5025750;28;20037;-62
2023/08/26 06:51:46;;;;;;;5.43;1.98;;;;;;;-142.75;100.00;75857.78;5026154;28;20018;-61
2023/08/26 06:54:11;;;;;;;5.45;2.10;;;;;;;-142.75;100.00;75889.25;5025632;28;20071;-62
2023/08/26 06:56:37;;;;;;;4.28;1.60;;;;;;;-142.75;100.00;75932.56;5025245;28;20032;-61
2023/08/26 06:59:02;;;;;;;4.97;1.73;;;;;;;-142.75;100.00;75934.53;5025655;28;20025;-61
2023/08/26 07:01:28;;;;;;;3.22;1.80;;;;;;;-142.75;100.00;75940.44;5025652;28;20425;-61
2023/08/26 07:04:01;;;;;;;3.35;1.40;;;;;;;-142.75;100.00;75936.50;5025500;28;20068;-61
2023/08/26 07:06:28;;;;;;;3.38;1.63;;;;;;;-142.75;100.00;75922.72;5022285;28;20025;-60
2023/08/26 07:08:54;;;;;;;3.38;1.50;;;;;;;-142.75;100.00;75916.81;5022815;28;20268;-61
2023/08/26 07:11:19;;;;;;;5.38;1.77;;;;;;;-142.75;100.00;75903.03;5023325;28;20026;-61
2023/08/26 07:13:44;;;;;;;4.93;1.58;;;;;;;-142.75;100.00;75897.13;5024054;28;20497;-61
2023/08/26 07:16:10;;;;;;;3.72;1.60;;;;;;;-142.75;100.00;75887.28;5023231;28;20029;-61
2023/08/26 07:18:35;;;;;;;4.45;1.92;;;;;;;-142.75;100.00;75865.63;5021057;28;20077;-62
2023/08/26 07:21:01;;;;;;;2.33;1.52;;;;;;;-142.75;100.00;75830.22;5025840;28;20624;-61
2023/08/26 07:23:27;;;;;;;2.65;1.30;;;;;;;-142.75;100.00;75826.28;5025434;28;20036;-61
2023/08/26 07:25:52;;;;;;;2.15;1.00;;;;;;;-142.75;100.00;75798.72;5024743;28;20036;-61
2023/08/26 07:28:17;;;;;;;5.75;2.13;;;;;;;-142.75;100.00;75775.09;5023966;28;20051;-61
2023/08/26 07:30:43;;;;;;;4.95;1.30;;;;;;;-142.75;100.00;75798.72;5025032;28;20065;-61
2023/08/26 07:33:08;;;;;;;2.83;1.30;;;;;;;-142.75;100.00;75786.91;5024887;28;20022;-62
2023/08/26 07:35:34;;;;;;;4.88;1.90;;;;;;;-142.75;100.00;75749.53;5021814;28;20555;-61
2023/08/26 07:37:59;;;;;;;3.70;1.38;;;;;;;-142.75;100.00;75788.88;5022852;28;20485;-62
2023/08/26 07:40:25;;;;;;;6.75;1.58;;;;;;;-142.75;100.00;75771.16;5024869;28;20067;-64
2023/08/26 07:42:51;;;;;;;4.55;1.58;;;;;;;-142.75;100.00;75745.59;5022977;28;20022;-62
2023/08/26 07:45:16;;;;;;;2.28;1.33;;;;;;;-142.75;100.00;75720.00;5023912;28;20029;-62
2023/08/26 07:47:42;;;;;;;3.00;1.42;;;;;;;-142.75;100.00;75700.31;5028259;28;20025;-61
2023/08/26 07:50:08;;;;;;;3.35;1.33;;;;;;;-142.75;100.00;75688.50;5035955;28;20039;-61
2023/08/26 07:52:33;;;;;;;4.45;1.38;;;;;;;-142.75;100.00;75686.53;5026182;28;20032;-61
2023/08/26 07:54:58;;;;;;;3.70;1.65;;;;;;;-142.75;100.00;75686.53;5020827;28;20035;-61
2023/08/26 07:57:24;;;;;;;3.30;1.67;;;;;;;-142.75;100.00;75739.69;5021705;28;20036;-62
2023/08/26 07:59:49;;;;;;;2.95;1.50;;;;;;;-142.75;100.00;75782.97;5020983;28;20048;-61
2023/08/26 08:02:14;;;;;;;5.80;1.58;;;;;;;-142.75;100.00;75802.66;5024557;28;20026;-61
2023/08/26 08:04:40;;;;;;;4.85;1.77;;;;;;;-142.75;100.00;75798.72;5023623;28;20032;-61
2023/08/26 08:07:05;;;;;;;4.43;1.30;;;;;;;-142.75;100.00;75786.91;5023784;28;20108;-62
2023/08/26 08:09:31;;;;;;;2.10;1.00;;;;;;;-142.75;100.00;75755.44;5024000;28;20026;-61
2023/08/26 08:11:56;;;;;;;2.78;1.15;;;;;;;-142.75;100.00;75725.91;5024342;28;20026;-61
2023/08/26 08:14:21;;;;;;;3.55;1.30;;;;;;;-142.75;100.00;75727.88;5023857;28;20685;-61
2023/08/26 08:16:47;;;;;;;2.83;1.20;;;;;;;-142.75;100.00;75702.28;5023638;28;20040;-62
2023/08/26 08:19:12;;;;;;;3.33;1.20;;;;;;;-142.75;100.00;75686.53;5018134;28;20551;-62
2023/08/26 08:21:37;;;;;;;4.65;1.10;;;;;;;-142.75;100.00;75688.50;5017078;28;21291;-62
2023/08/26 08:24:03;;;;;;;1.60;0.98;;;;;;;-142.75;100.00;75718.03;5015534;28;20112;-61
2023/08/26 08:26:32;;;;;;;3.20;1.13;;;;;;;-142.75;100.00;75737.72;5017947;28;20570;-61
2023/08/26 08:28:57;;;;;;;2.90;1.15;;;;;;;-142.75;100.00;75718.03;5015174;28;20235;-61
2023/08/26 08:31:23;;;;;;;1.98;0.88;;;;;;;-142.75;100.00;75755.44;5021174;28;20123;-61
2023/08/26 08:33:48;;;;;;;3.50;0.93;;;;;;;-142.75;100.00;75806.59;5015939;28;20033;-62
2023/08/26 08:36:13;;;;;;;3.28;1.00;;;;;;;-142.75;100.00;75798.72;5023562;28;20056;-62
2023/08/26 08:38:39;;;;;;;3.75;1.23;;;;;;;-142.75;100.00;75834.16;5027345;28;20037;-62
2023/08/26 08:41:04;;;;;;;1.75;0.98;;;;;;;-142.75;100.00;75806.59;5031601;28;20033;-62
2023/08/26 08:43:30;;;;;;;3.10;1.38;;;;;;;-142.75;100.00;75761.34;5028951;28;20033;-62
2023/08/26 08:45:56;;;;;;;5.10;1.25;;;;;;;-142.75;100.00;75747.56;5023218;28;20022;-61
2023/08/26 08:48:23;;;;;;;3.22;1.33;;;;;;;-142.75;100.00;75782.97;5027453;28;20029;-62
2023/08/26 08:50:50;;;;;;;5.35;1.35;;;;;;;-142.75;100.00;75824.31;5027226;28;20104;-62
2023/08/26 08:53:28;;;;;;;2.60;1.27;;;;;;;-142.75;100.00;75810.53;5027690;28;20056;-62
2023/08/26 08:55:54;;;;;;;2.75;1.20;;;;;;;-142.75;100.00;75822.34;5025951;28;20104;-62
2023/08/26 08:58:21;;;;;;;3.08;1.40;;;;;;;-142.75;100.00;75834.16;5025365;28;20603;-62
2023/08/26 09:00:47;;;;;;;3.60;1.27;;;;;;;-142.75;100.00;75834.16;5026979;28;20053;-62
2023/08/26 09:03:13;;;;;;;3.65;1.15;;;;;;;-142.75;100.00;75820.38;5026893;28;20122;-62
2023/08/26 09:05:38;;;;;;;4.38;1.27;;;;;;;-142.75;100.00;75806.59;5027439;28;20025;-62
2023/08/26 09:08:06;;;;;;;3.78;1.45;;;;;;;-142.75;100.00;75808.56;5028295;28;20051;-62
2023/08/26 09:10:32;;;;;;;3.70;1.33;;;;;;;-142.75;100.00;75822.34;5028296;28;20112;-62
2023/08/26 09:12:59;;;;;;;7.38;1.50;;;;;;;-142.75;100.00;75794.78;5026879;28;20017;-62
2023/08/26 09:15:26;;;;;;;3.78;1.42;;;;;;;-142.75;100.00;75777.06;5027714;28;20680;-61
2023/08/26 09:17:57;;;;;;;5.47;1.17;;;;;;;-142.75;100.00;75686.53;5031321;28;20021;-62
2023/08/26 09:20:22;;;;;;;4.63;1.38;;;;;;;-142.75;100.00;75643.25;5031410;28;20035;-62
2023/08/26 09:22:48;;;;;;;6.90;1.33;;;;;;;-142.75;100.00;75631.44;5027904;28;20014;-62
2023/08/26 09:25:13;;;;;;;2.85;1.20;;;;;;;-142.75;100.00;75611.75;5028146;28;20543;-62
2023/08/26 09:27:44;;;;;;;4.65;1.25;;;;;;;-142.75;100.00;75615.69;5028690;28;20499;-61
2023/08/26 09:30:11;;;;;;;4.65;1.52;;;;;;;-142.75;100.00;75597.97;5028397;28;20124;-62
2023/08/26 09:32:43;;;;;;;5.57;1.30;;;;;;;-142.75;100.00;75582.25;5028347;28;20052;-61
2023/08/26 09:35:13;;;;;;;3.08;1.10;;;;;;;-142.75;100.00;75597.97;5027660;28;20036;-62
2023/08/26 09:37:44;;;;;;;2.72;1.00;;;;;;;-142.75;100.00;75643.25;5028124;28;20497;-63
2023/08/26 09:40:15;;;;;;;2.92;1.25;;;;;;;-142.75;100.00;75623.56;5027633;28;20108;-62
2023/08/26 09:42:41;;;;;;;2.58;1.10;;;;;;;-142.75;100.00;75566.50;5028027;28;20026;-62
2023/08/26 09:45:09;;;;;;;3.85;1.17;;;;;;;-142.75;100.00;75535.00;5027976;28;20107;-63
2023/08/26 09:47:38;;;;;;;4.20;1.30;;;;;;;-142.75;100.00;75495.66;5026241;28;21254;-62
2023/08/26 09:50:05;;;;;;;2.28;1.10;;;;;;;-142.75;100.00;75456.28;5027636;28;20064;-63
2023/08/26 09:52:49;;;;;;;5.03;1.38;;;;;;;-142.75;100.00;75454.31;5027722;28;20037;-63
2023/08/26 09:55:15;;;;;;;2.78;1.08;;;;;;;-142.75;100.00;75511.41;5026186;28;20033;-63
2023/08/26 09:57:41;;;;;;;3.22;1.05;;;;;;;-142.75;100.00;75519.25;5027617;28;20048;-63
2023/08/26 10:00:11;;;;;;;3.60;1.10;;;;;;;-142.75;100.00;75536.97;5033263;28;20033;-63
2023/08/26 10:02:48;;;;;;;2.00;1.13;;;;;;;-142.75;100.00;75509.44;5027721;28;20030;-62
2023/08/26 10:05:17;;;;;;;3.08;0.90;;;;;;;-142.75;100.00;75531.06;5028568;28;20508;-64
2023/08/26 10:07:46;;;;;;;3.90;1.00;;;;;;;-142.75;100.00;75542.88;5027249;28;20021;-63
2023/08/26 10:10:39;;;;;;;4.60;1.30;;;;;;;-142.75;100.00;75544.84;5027708;28;20022;-62
2023/08/26 10:13:05;;;;;;;3.13;1.20;;;;;;;-142.75;100.00;75468.09;5023626;28;20033;-62
2023/08/26 10:15:33;;;;;;;4.13;0.98;;;;;;;-142.75;100.00;75430.72;5027135;28;20029;-62
2023/08/26 10:18:06;;;;;;;2.70;1.10;;;;;;;-142.75;100.00;75416.94;5027564;28;20032;-62
2023/08/26 10:20:31;;;;;;;3.67;1.05;;;;;;;-142.75;100.00;75414.97;5026811;28;20079;-62
2023/08/26 10:22:57;;;;;;;4.53;1.23;;;;;;;-142.75;100.00;75369.69;5027481;28;20385;-62
2023/08/26 10:25:23;;;;;;;2.47;0.90;;;;;;;-142.75;100.00;75352.00;5026999;28;20025;-62
2023/08/26 10:27:49;;;;;;;4.65;1.30;;;;;;;-142.75;100.00;75353.97;5027349;28;20413;-62
2023/08/26 10:30:15;;;;;;;3.05;1.20;;;;;;;-142.75;100.00;75310.66;5027295;28;20497;-62
2023/08/26 10:32:44;;;;;;;2.53;0.80;;;;;;;-142.75;100.00;75434.66;5035575;28;20032;-62
2023/08/26 10:35:12;;;;;;;2.13;0.90;;;;;;;-142.75;100.00;75428.75;5026865;28;20602;-63
2023/08/26 10:37:37;;;;;;;5.20;1.30;;;;;;;-142.75;100.00;75411.03;5026954;28;20044;-62
2023/08/26 10:40:08;;;;;;;2.42;1.10;;;;;;;-142.75;100.00;75418.91;5027448;28;20136;-62
2023/08/26 10:42:35;;;;;;;1.83;0.80;;;;;;;-142.75;98.02;75452.34;5027251;28;20029;-62
2023/08/26 10:45:02;;;;;;;1.48;0.50;;;;;;;-142.75;100.00;75448.41;5026960;28;20555;-62
2023/08/26 10:47:38;;;;;;;1.55;0.65;;;;;;;-142.75;99.45;75458.25;5027077;28;20099;-62
2023/08/26 10:50:14;;;;;;;;;;;;;;;-142.75;100.00;75446.44;5025910;28;20021;-62
2023/08/26 10:52:41;;;;;;;2.08;1.00;;;;;;;-142.75;100.00;75442.50;5026930;28;19912;-62
2023/08/26 10:55:22;;;;;;;1.60;0.80;;;;;;;-142.75;97.16;75485.81;5025590;28;20033;-62
2023/08/26 10:58:16;;;;;;;1.73;0.80;;;;;;;-142.75;98.62;75468.09;5026705;28;20022;-62
2023/08/26 11:00:47;;;;;;;2.35;0.77;;;;;;;-142.75;99.54;75505.50;5026860;28;20599;-62
2023/08/26 11:03:16;;;;;;;4.18;1.20;;;;;;;-142.75;100.00;75578.31;5026628;28;20026;-62
2023/08/26 11:05:44;;;;;;;1.92;1.08;;;;;;;-142.75;100.00;75655.06;5026458;28;20029;-61
2023/08/26 11:08:09;;;;;;;2.50;1.10;;;;;;;-142.75;100.00;75672.78;5026499;28;20017;-61
2023/08/26 11:10:40;;;;;;;1.83;0.90;;;;;;;-142.75;100.00;75664.91;5026667;28;20021;-62